sensor_id;sensor_type;location;lat;lon;timestamp;pressure;altitude;pressure_sealevel;temperature;humidity
34370;BME280;20635;55.812;37.560;2022-12-18T00:02:06;98933.59;;;26.20;39.33
34370;BME280;20635;55.812;37.560;2022-12-18T00:04:32;98932.75;;;26.20;39.59
34370;BME280;20635;55.812;37.560;2022-12-18T00:06:58;98923.53;;;26.19;39.55
34370;BME280;20635;55.812;37.560;2022-12-18T00:09:24;98909.50;;;26.19;39.27
34370;BME280;20635;55.812;37.560;2022-12-18T00:11:50;98903.06;;;26.19;39.44
34370;BME280;20635;55.812;37.560;2022-12-18T00:14:16;98901.44;;;26.18;39.16
34370;BME280;20635;55.812;37.560;2022-12-18T00:16:46;98905.88;;;26.19;39.23
34370;BME280;20635;55.812;37.560;2022-12-18T00:19:13;98897.81;;;26.17;39.13
34370;BME280;20635;55.812;37.560;2022-12-18T00:21:40;98895.81;;;26.18;39.16
34370;BME280;20635;55.812;37.560;2022-12-18T00:24:06;98888.91;;;26.15;38.98
34370;BME280;20635;55.812;37.560;2022-12-18T00:26:33;98884.09;;;26.16;39.20
34370;BME280;20635;55.812;37.560;2022-12-18T00:29:03;98880.16;;;26.17;39.40
34370;BME280;20635;55.812;37.560;2022-12-18T00:31:30;98870.06;;;26.16;39.46
34370;BME280;20635;55.812;37.560;2022-12-18T00:33:57;98871.25;;;26.15;39.07
34370;BME280;20635;55.812;37.560;2022-12-18T00:36:28;98864.81;;;26.14;39.01
34370;BME280;20635;55.812;37.560;2022-12-18T00:38:56;98862.81;;;26.15;38.97
34370;BME280;20635;55.812;37.560;2022-12-18T00:41:22;98866.81;;;26.14;39.04
34370;BME280;20635;55.812;37.560;2022-12-18T00:44:10;98852.31;;;26.12;39.48
34370;BME280;20635;55.812;37.560;2022-12-18T00:46:36;98853.16;;;26.12;39.17
34370;BME280;20635;55.812;37.560;2022-12-18T00:49:02;98855.94;;;26.12;39.18
34370;BME280;20635;55.812;37.560;2022-12-18T00:51:29;98845.88;;;26.11;39.05
34370;BME280;20635;55.812;37.560;2022-12-18T00:53:55;98843.91;;;26.12;38.92
34370;BME280;20635;55.812;37.560;2022-12-18T00:56:21;98851.50;;;26.11;39.47
34370;BME280;20635;55.812;37.560;2022-12-18T00:58:48;98843.44;;;26.10;39.53
34370;BME280;20635;55.812;37.560;2022-12-18T01:01:14;98841.81;;;26.09;39.08
34370;BME280;20635;55.812;37.560;2022-12-18T01:03:40;98838.19;;;26.08;38.92
34370;BME280;20635;55.812;37.560;2022-12-18T01:06:11;98837.81;;;26.10;39.18
34370;BME280;20635;55.812;37.560;2022-12-18T01:08:38;98820.53;;;26.08;39.06
34370;BME280;20635;55.812;37.560;2022-12-18T01:11:08;98817.72;;;26.08;39.06
34370;BME280;20635;55.812;37.560;2022-12-18T01:13:35;98820.16;;;26.09;39.21
34370;BME280;20635;55.812;37.560;2022-12-18T01:16:01;98821.34;;;26.08;39.03
34370;BME280;20635;55.812;37.560;2022-12-18T01:18:27;98808.81;;;26.05;38.92
34370;BME280;20635;55.812;37.560;2022-12-18T01:20:52;98801.22;;;26.06;38.79
34370;BME280;20635;55.812;37.560;2022-12-18T01:23:18;98789.53;;;26.04;38.98
34370;BME280;20635;55.812;37.560;2022-12-18T01:25:44;98803.56;;;26.04;39.48
34370;BME280;20635;55.812;37.560;2022-12-18T01:28:10;98795.16;;;26.04;39.00
34370;BME280;20635;55.812;37.560;2022-12-18T01:30:36;98804.75;;;26.03;39.21
34370;BME280;20635;55.812;37.560;2022-12-18T01:33:04;98802.75;;;26.03;39.18
34370;BME280;20635;55.812;37.560;2022-12-18T01:35:31;98797.47;;;26.02;39.30
34370;BME280;20635;55.812;37.560;2022-12-18T01:37:57;98805.09;;;26.01;38.94
34370;BME280;20635;55.812;37.560;2022-12-18T01:40:23;98805.09;;;26.01;38.74
34370;BME280;20635;55.812;37.560;2022-12-18T01:42:54;98805.91;;;26.02;39.00
34370;BME280;20635;55.812;37.560;2022-12-18T01:45:28;98800.75;;;26.04;39.00
34370;BME280;20635;55.812;37.560;2022-12-18T01:48:06;98802.38;;;26.05;38.52
34370;BME280;20635;55.812;37.560;2022-12-18T01:50:40;98799.47;;;26.01;38.48
34370;BME280;20635;55.812;37.560;2022-12-18T01:53:12;98797.47;;;26.02;38.84
34370;BME280;20635;55.812;37.560;2022-12-18T01:55:55;98793.88;;;26.01;38.75
34370;BME280;20635;55.812;37.560;2022-12-18T01:58:27;98800.03;;;26.07;38.69
34370;BME280;20635;55.812;37.560;2022-12-18T02:00:56;98793.06;;;26.01;38.80
34370;BME280;20635;55.812;37.560;2022-12-18T02:03:21;98792.59;;;25.99;38.80
34370;BME280;20635;55.812;37.560;2022-12-18T02:19:06;98789.31;;;25.97;38.74
34370;BME280;20635;55.812;37.560;2022-12-18T02:25:00;98805.00;;;25.98;38.93
34370;BME280;20635;55.812;37.560;2022-12-18T02:27:31;98814.16;;;25.95;38.63
34370;BME280;20635;55.812;37.560;2022-12-18T02:29:59;98814.47;;;25.93;38.38
34370;BME280;20635;55.812;37.560;2022-12-18T02:32:35;98807.72;;;25.94;38.91
34370;BME280;20635;55.812;37.560;2022-12-18T02:35:06;98808.88;;;25.93;38.98
34370;BME280;20635;55.812;37.560;2022-12-18T02:37:35;98791.56;;;25.91;38.83
34370;BME280;20635;55.812;37.560;2022-12-18T02:40:05;98801.63;;;25.92;38.88
34370;BME280;20635;55.812;37.560;2022-12-18T02:42:34;98803.63;;;25.92;39.21
34370;BME280;20635;55.812;37.560;2022-12-18T02:45:02;98808.41;;;25.91;39.07
34370;BME280;20635;55.812;37.560;2022-12-18T02:47:31;98796.38;;;25.91;39.00
34370;BME280;20635;55.812;37.560;2022-12-18T02:50:54;98797.63;;;25.93;39.16
34370;BME280;20635;55.812;37.560;2022-12-18T03:01:09;98797.19;;;25.91;38.98
34370;BME280;20635;55.812;37.560;2022-12-18T03:03:56;98793.56;;;25.91;38.99
34370;BME280;20635;55.812;37.560;2022-12-18T03:06:40;98794.38;;;25.91;39.03
34370;BME280;20635;55.812;37.560;2022-12-18T03:09:15;98801.50;;;25.89;38.85
34370;BME280;20635;55.812;37.560;2022-12-18T03:11:48;98790.28;;;25.89;39.09
34370;BME280;20635;55.812;37.560;2022-12-18T03:14:37;98782.25;;;25.87;39.43
34370;BME280;20635;55.812;37.560;2022-12-18T03:17:05;98781.44;;;25.87;39.01
34370;BME280;20635;55.812;37.560;2022-12-18T03:19:34;98780.97;;;25.85;38.75
34370;BME280;20635;55.812;37.560;2022-12-18T03:22:03;98779.00;;;25.85;38.74
34370;BME280;20635;55.812;37.560;2022-12-18T03:24:39;98791.03;;;25.86;38.84
34370;BME280;20635;55.812;37.560;2022-12-18T03:27:10;98787.41;;;25.85;38.84
34370;BME280;20635;55.812;37.560;2022-12-18T03:29:38;98784.78;;;25.92;38.79
34370;BME280;20635;55.812;37.560;2022-12-18T03:32:12;98785.84;;;25.88;38.85
34370;BME280;20635;55.812;37.560;2022-12-18T03:34:42;98792.22;;;25.85;38.56
34370;BME280;20635;55.812;37.560;2022-12-18T03:37:13;98805.06;;;25.86;38.68
34370;BME280;20635;55.812;37.560;2022-12-18T03:39:40;98800.16;;;25.83;38.59
34370;BME280;20635;55.812;37.560;2022-12-18T03:42:28;98813.13;;;25.87;38.60
34370;BME280;20635;55.812;37.560;2022-12-18T03:45:09;98807.06;;;25.85;38.69
34370;BME280;20635;55.812;37.560;2022-12-18T03:47:56;98805.88;;;25.86;37.91
34370;BME280;20635;55.812;37.560;2022-12-18T03:53:29;98800.25;;;25.86;35.75
34370;BME280;20635;55.812;37.560;2022-12-18T03:56:00;98786.22;;;25.86;35.08
34370;BME280;20635;55.812;37.560;2022-12-18T03:58:34;98787.03;;;25.87;34.41
34370;BME280;20635;55.812;37.560;2022-12-18T04:01:15;98785.84;;;25.88;34.13
34370;BME280;20635;55.812;37.560;2022-12-18T04:03:44;98789.47;;;25.88;34.04
34370;BME280;20635;55.812;37.560;2022-12-18T04:06:13;98794.75;;;25.90;33.53
34370;BME280;20635;55.812;37.560;2022-12-18T04:08:41;98782.34;;;25.91;33.14
34370;BME280;20635;55.812;37.560;2022-12-18T04:11:10;98780.34;;;25.91;33.33
34370;BME280;20635;55.812;37.560;2022-12-18T04:13:38;98784.78;;;25.92;33.02
34370;BME280;20635;55.812;37.560;2022-12-18T04:16:13;98790.06;;;25.94;32.86
34370;BME280;20635;55.812;37.560;2022-12-18T04:18:42;98791.69;;;25.95;32.43
34370;BME280;20635;55.812;37.560;2022-12-18T04:21:09;98802.56;;;25.96;32.44
34370;BME280;20635;55.812;37.560;2022-12-18T04:23:36;98812.59;;;25.97;32.24
34370;BME280;20635;55.812;37.560;2022-12-18T04:26:01;98816.59;;;25.96;32.17
34370;BME280;20635;55.812;37.560;2022-12-18T04:28:59;98822.69;;;25.98;32.03
34370;BME280;20635;55.812;37.560;2022-12-18T04:31:27;98827.44;;;25.98;31.77
34370;BME280;20635;55.812;37.560;2022-12-18T04:33:53;98833.91;;;25.98;31.56
34370;BME280;20635;55.812;37.560;2022-12-18T04:36:19;98849.56;;;25.99;31.67
34370;BME280;20635;55.812;37.560;2022-12-18T04:38:46;98859.59;;;26.00;31.47
34370;BME280;20635;55.812;37.560;2022-12-18T04:41:14;98863.22;;;26.01;31.31
34370;BME280;20635;55.812;37.560;2022-12-18T04:43:42;98860.44;;;26.01;31.05
34370;BME280;20635;55.812;37.560;2022-12-18T04:46:08;98848.00;;;26.02;30.82
34370;BME280;20635;55.812;37.560;2022-12-18T04:48:35;98861.72;;;26.03;31.13
34370;BME280;20635;55.812;37.560;2022-12-18T04:51:02;98865.66;;;26.02;30.98
34370;BME280;20635;55.812;37.560;2022-12-18T04:59:49;98872.56;;;26.05;30.46
34370;BME280;20635;55.812;37.560;2022-12-18T05:02:14;98874.56;;;26.04;30.37
34370;BME280;20635;55.812;37.560;2022-12-18T05:04:40;98868.59;;;26.06;30.31
34370;BME280;20635;55.812;37.560;2022-12-18T05:07:06;98862.16;;;26.05;30.11
34370;BME280;20635;55.812;37.560;2022-12-18T05:09:32;98866.59;;;26.06;30.20
34370;BME280;20635;55.812;37.560;2022-12-18T05:11:58;98868.25;;;26.08;29.94
34370;BME280;20635;55.812;37.560;2022-12-18T05:14:24;98859.34;;;26.05;29.97
34370;BME280;20635;55.812;37.560;2022-12-18T05:16:49;98861.78;;;26.07;29.83
34370;BME280;20635;55.812;37.560;2022-12-18T05:19:15;98868.25;;;26.08;30.03
34370;BME280;20635;55.812;37.560;2022-12-18T05:21:41;98864.25;;;26.09;29.64
34370;BME280;20635;55.812;37.560;2022-12-18T05:24:07;98865.06;;;26.09;29.63
34370;BME280;20635;55.812;37.560;2022-12-18T05:26:33;98873.50;;;26.09;29.27
34370;BME280;20635;55.812;37.560;2022-12-18T05:28:59;98882.72;;;26.10;29.65
34370;BME280;20635;55.812;37.560;2022-12-18T05:31:25;98889.97;;;26.11;29.36
34370;BME280;20635;55.812;37.560;2022-12-18T05:33:51;98893.59;;;26.11;29.38
34370;BME280;20635;55.812;37.560;2022-12-18T05:36:17;98894.78;;;26.10;29.21
34370;BME280;20635;55.812;37.560;2022-12-18T05:38:43;98907.63;;;26.11;29.26
34370;BME280;20635;55.812;37.560;2022-12-18T05:41:09;98917.72;;;26.12;29.16
34370;BME280;20635;55.812;37.560;2022-12-18T05:43:37;98918.88;;;26.11;29.01
34370;BME280;20635;55.812;37.560;2022-12-18T05:46:05;98919.72;;;26.12;29.29
34370;BME280;20635;55.812;37.560;2022-12-18T05:48:32;98924.16;;;26.13;29.17
34370;BME280;20635;55.812;37.560;2022-12-18T05:51:04;98931.38;;;26.14;29.02
34370;BME280;20635;55.812;37.560;2022-12-18T05:53:31;98929.41;;;26.14;28.88
34370;BME280;20635;55.812;37.560;2022-12-18T05:56:00;98942.25;;;26.15;28.84
34370;BME280;20635;55.812;37.560;2022-12-18T05:58:27;98955.47;;;26.15;28.85
34370;BME280;20635;55.812;37.560;2022-12-18T06:00:53;98959.09;;;26.15;28.73
34370;BME280;20635;55.812;37.560;2022-12-18T06:03:19;98945.88;;;26.16;28.75
34370;BME280;20635;55.812;37.560;2022-12-18T06:05:45;98949.53;;;26.16;28.75
34370;BME280;20635;55.812;37.560;2022-12-18T06:08:12;98959.59;;;26.17;28.81
34370;BME280;20635;55.812;37.560;2022-12-18T06:10:38;98954.78;;;26.18;28.60
34370;BME280;20635;55.812;37.560;2022-12-18T06:13:05;98963.22;;;26.18;28.51
34370;BME280;20635;55.812;37.560;2022-12-18T06:15:32;98966.47;;;26.20;28.60
34370;BME280;20635;55.812;37.560;2022-12-18T06:17:57;98971.75;;;26.21;28.64
34370;BME280;20635;55.812;37.560;2022-12-18T06:20:23;98972.56;;;26.22;28.75
34370;BME280;20635;55.812;37.560;2022-12-18T06:22:49;98977.00;;;26.23;28.62
34370;BME280;20635;55.812;37.560;2022-12-18T06:25:15;98984.25;;;26.24;28.76
34370;BME280;20635;55.812;37.560;2022-12-18T06:27:41;98981.44;;;26.24;28.65
34370;BME280;20635;55.812;37.560;2022-12-18T06:30:08;98986.72;;;26.25;28.65
34370;BME280;20635;55.812;37.560;2022-12-18T06:32:34;98991.16;;;26.26;28.67
34370;BME280;20635;55.812;37.560;2022-12-18T06:35:00;98991.16;;;26.26;29.00
34370;BME280;20635;55.812;37.560;2022-12-18T06:37:26;98992.34;;;26.25;28.88
34370;BME280;20635;55.812;37.560;2022-12-18T06:39:53;98985.53;;;26.26;28.88
34370;BME280;20635;55.812;37.560;2022-12-18T06:42:19;98990.78;;;26.28;28.96
34370;BME280;20635;55.812;37.560;2022-12-18T06:44:44;98997.22;;;26.28;29.03
34370;BME280;20635;55.812;37.560;2022-12-18T06:47:10;99002.84;;;26.28;29.13
34370;BME280;20635;55.812;37.560;2022-12-18T06:49:36;99016.53;;;26.30;29.24
34370;BME280;20635;55.812;37.560;2022-12-18T06:52:02;99024.59;;;26.31;29.25
34370;BME280;20635;55.812;37.560;2022-12-18T06:54:28;99035.84;;;26.31;29.15
34370;BME280;20635;55.812;37.560;2022-12-18T06:56:54;99044.25;;;26.31;29.08
34370;BME280;20635;55.812;37.560;2022-12-18T06:59:20;99048.34;;;26.34;29.15
34370;BME280;20635;55.812;37.560;2022-12-18T07:01:46;99032.66;;;26.33;29.18
34370;BME280;20635;55.812;37.560;2022-12-18T07:04:12;99046.38;;;26.35;29.33
34370;BME280;20635;55.812;37.560;2022-12-18T07:06:53;99051.63;;;26.36;29.41
34370;BME280;20635;55.812;37.560;2022-12-18T07:09:29;99062.03;;;26.36;29.61
34370;BME280;20635;55.812;37.560;2022-12-18T07:12:04;99061.22;;;26.35;29.50
34370;BME280;20635;55.812;37.560;2022-12-18T07:14:35;99074.53;;;26.38;29.56
34370;BME280;20635;55.812;37.560;2022-12-18T07:17:01;99068.13;;;26.38;29.48
34370;BME280;20635;55.812;37.560;2022-12-18T07:19:27;99062.88;;;26.36;29.44
34370;BME280;20635;55.812;37.560;2022-12-18T07:21:53;99067.31;;;26.37;29.53
34370;BME280;20635;55.812;37.560;2022-12-18T07:24:19;99073.72;;;26.38;29.39
34370;BME280;20635;55.812;37.560;2022-12-18T07:26:46;99077.03;;;26.40;29.59
34370;BME280;20635;55.812;37.560;2022-12-18T07:29:12;99081.81;;;26.39;29.97
34370;BME280;20635;55.812;37.560;2022-12-18T07:31:38;99091.41;;;26.38;29.70
34370;BME280;20635;55.812;37.560;2022-12-18T07:34:04;99112.34;;;26.41;29.45
34370;BME280;20635;55.812;37.560;2022-12-18T07:36:30;99107.56;;;26.41;29.71
34370;BME280;20635;55.812;37.560;2022-12-18T07:38:56;99115.97;;;26.41;29.83
34370;BME280;20635;55.812;37.560;2022-12-18T07:41:22;99118.44;;;26.43;29.76
34370;BME280;20635;55.812;37.560;2022-12-18T07:43:48;99119.59;;;26.42;29.76
34370;BME280;20635;55.812;37.560;2022-12-18T07:46:14;99115.31;;;26.44;29.75
34370;BME280;20635;55.812;37.560;2022-12-18T07:48:42;99113.31;;;26.45;29.99
34370;BME280;20635;55.812;37.560;2022-12-18T07:51:08;99119.75;;;26.45;29.84
34370;BME280;20635;55.812;37.560;2022-12-18T07:53:37;99114.16;;;26.45;29.83
34370;BME280;20635;55.812;37.560;2022-12-18T07:56:05;99118.59;;;26.46;30.39
34370;BME280;20635;55.812;37.560;2022-12-18T07:58:32;99112.97;;;26.46;30.57
34370;BME280;20635;55.812;37.560;2022-12-18T08:01:06;99115.06;;;26.49;30.96
34370;BME280;20635;55.812;37.560;2022-12-18T08:03:32;99117.06;;;26.49;31.59
34370;BME280;20635;55.812;37.560;2022-12-18T08:06:00;99125.50;;;26.49;33.17
34370;BME280;20635;55.812;37.560;2022-12-18T08:08:27;99122.69;;;26.49;33.65
34370;BME280;20635;55.812;37.560;2022-12-18T08:10:53;99131.94;;;26.49;34.47
34370;BME280;20635;55.812;37.560;2022-12-18T08:13:19;99131.13;;;26.49;34.82
34370;BME280;20635;55.812;37.560;2022-12-18T08:15:45;99143.97;;;26.50;35.34
34370;BME280;20635;55.812;37.560;2022-12-18T08:18:11;99143.97;;;26.50;36.07
34370;BME280;20635;55.812;37.560;2022-12-18T08:20:36;99148.78;;;26.49;36.21
34370;BME280;20635;55.812;37.560;2022-12-18T08:23:02;99168.44;;;26.49;36.74
34370;BME280;20635;55.812;37.560;2022-12-18T08:25:28;99168.44;;;26.49;36.96
34370;BME280;20635;55.812;37.560;2022-12-18T08:27:54;99188.13;;;26.49;37.21
34370;BME280;20635;55.812;37.560;2022-12-18T08:30:22;99191.75;;;26.50;37.42
34370;BME280;20635;55.812;37.560;2022-12-18T08:32:51;99202.63;;;26.51;37.82
34370;BME280;20635;55.812;37.560;2022-12-18T08:35:18;99200.19;;;26.50;37.96
34370;BME280;20635;55.812;37.560;2022-12-18T08:37:44;99194.91;;;26.48;38.27
34370;BME280;20635;55.812;37.560;2022-12-18T08:40:10;99202.63;;;26.51;38.31
34370;BME280;20635;55.812;37.560;2022-12-18T08:42:36;99200.19;;;26.50;38.63
34370;BME280;20635;55.812;37.560;2022-12-18T08:45:20;99203.81;;;26.50;38.58
34370;BME280;20635;55.812;37.560;2022-12-18T08:47:46;99205.44;;;26.51;38.64
34370;BME280;20635;55.812;37.560;2022-12-18T08:50:12;99201.00;;;26.50;38.52
34370;BME280;20635;55.812;37.560;2022-12-18T08:52:38;99202.63;;;26.51;38.72
34370;BME280;20635;55.812;37.560;2022-12-18T08:55:04;99209.88;;;26.52;38.70
34370;BME280;20635;55.812;37.560;2022-12-18T08:57:30;99201.81;;;26.51;39.04
34370;BME280;20635;55.812;37.560;2022-12-18T08:59:56;99198.19;;;26.50;39.01
34370;BME280;20635;55.812;37.560;2022-12-18T09:02:22;99211.41;;;26.50;39.19
34370;BME280;20635;55.812;37.560;2022-12-18T09:04:48;99204.63;;;26.51;39.44
34370;BME280;20635;55.812;37.560;2022-12-18T09:07:14;99207.78;;;26.49;39.24
34370;BME280;20635;55.812;37.560;2022-12-18T09:09:39;99219.84;;;26.50;39.67
34370;BME280;20635;55.812;37.560;2022-12-18T09:12:05;99222.16;;;26.48;39.33
34370;BME280;20635;55.812;37.560;2022-12-18T09:14:31;99221.34;;;26.47;39.90
34370;BME280;20635;55.812;37.560;2022-12-18T09:16:57;99216.09;;;26.46;40.48
34370;BME280;20635;55.812;37.560;2022-12-18T09:19:23;99232.94;;;26.46;40.34
34370;BME280;20635;55.812;37.560;2022-12-18T09:21:48;99237.28;;;26.43;40.25
34370;BME280;20635;55.812;37.560;2022-12-18T09:24:15;99235.84;;;26.37;39.25
34370;BME280;20635;55.812;37.560;2022-12-18T09:26:41;99244.38;;;26.28;37.07
34370;BME280;20635;55.812;37.560;2022-12-18T09:29:07;99242.47;;;26.20;36.01
34370;BME280;20635;55.812;37.560;2022-12-18T09:31:33;99248.22;;;26.12;36.19
34370;BME280;20635;55.812;37.560;2022-12-18T09:33:59;99255.91;;;26.02;35.16
34370;BME280;20635;55.812;37.560;2022-12-18T09:36:25;99262.91;;;25.96;34.44
34370;BME280;20635;55.812;37.560;2022-12-18T09:38:51;99267.13;;;25.90;35.04
34370;BME280;20635;55.812;37.560;2022-12-18T09:41:39;99272.25;;;25.88;34.91
34370;BME280;20635;55.812;37.560;2022-12-18T09:44:11;99289.88;;;25.76;34.15
34370;BME280;20635;55.812;37.560;2022-12-18T09:46:47;99283.72;;;25.62;33.71
34370;BME280;20635;55.812;37.560;2022-12-18T09:49:18;99292.66;;;25.55;33.84
34370;BME280;20635;55.812;37.560;2022-12-18T09:52:08;99300.63;;;25.53;33.27
34370;BME280;20635;55.812;37.560;2022-12-18T09:54:42;99294.25;;;25.44;33.45
34370;BME280;20635;55.812;37.560;2022-12-18T09:57:15;99296.78;;;25.37;32.30
34370;BME280;20635;55.812;37.560;2022-12-18T10:00:06;99285.63;;;25.28;32.66
34370;BME280;20635;55.812;37.560;2022-12-18T10:02:56;99300.41;;;25.17;32.90
34370;BME280;20635;55.812;37.560;2022-12-18T10:10:44;99306.75;;;24.96;31.83
34370;BME280;20635;55.812;37.560;2022-12-18T10:13:55;99303.50;;;24.94;32.38
34370;BME280;20635;55.812;37.560;2022-12-18T10:16:32;99308.34;;;24.85;32.33
34370;BME280;20635;55.812;37.560;2022-12-18T10:27:16;99310.41;;;24.67;32.74
34370;BME280;20635;55.812;37.560;2022-12-18T10:29:44;99319.63;;;24.68;33.17
34370;BME280;20635;55.812;37.560;2022-12-18T10:32:20;99316.47;;;24.69;33.85
34370;BME280;20635;55.812;37.560;2022-12-18T10:34:48;99322.91;;;24.70;34.44
34370;BME280;20635;55.812;37.560;2022-12-18T10:37:17;99312.50;;;24.70;34.85
34370;BME280;20635;55.812;37.560;2022-12-18T10:39:44;99318.13;;;24.70;35.17
34370;BME280;20635;55.812;37.560;2022-12-18T10:42:18;99313.00;;;24.72;35.00
34370;BME280;20635;55.812;37.560;2022-12-18T10:44:44;99316.16;;;24.71;35.20
34370;BME280;20635;55.812;37.560;2022-12-18T10:47:14;99316.97;;;24.71;35.36
34370;BME280;20635;55.812;37.560;2022-12-18T10:49:49;99322.69;;;24.75;35.41
34370;BME280;20635;55.812;37.560;2022-12-18T10:52:23;99335.06;;;24.74;36.15
34370;BME280;20635;55.812;37.560;2022-12-18T10:54:57;99347.59;;;24.76;36.22
34370;BME280;20635;55.812;37.560;2022-12-18T10:57:38;99351.69;;;24.79;36.04
34370;BME280;20635;55.812;37.560;2022-12-18T11:00:26;99354.50;;;24.79;34.87
34370;BME280;20635;55.812;37.560;2022-12-18T11:02:54;99356.88;;;24.68;34.77
34370;BME280;20635;55.812;37.560;2022-12-18T11:07:55;99368.09;;;24.60;33.92
34370;BME280;20635;55.812;37.560;2022-12-18T11:10:26;99368.75;;;24.57;34.07
34370;BME280;20635;55.812;37.560;2022-12-18T11:12:53;99381.78;;;24.52;34.35
34370;BME280;20635;55.812;37.560;2022-12-18T11:15:24;99376.06;;;24.49;33.95
34370;BME280;20635;55.812;37.560;2022-12-18T11:17:52;99381.00;;;24.43;33.70
34370;BME280;20635;55.812;37.560;2022-12-18T11:20:38;99393.88;;;24.44;33.33
34370;BME280;20635;55.812;37.560;2022-12-18T11:23:10;99396.34;;;24.37;32.75
34370;BME280;20635;55.812;37.560;2022-12-18T11:25:37;99400.94;;;24.33;33.03
34370;BME280;20635;55.812;37.560;2022-12-18T11:28:25;99390.53;;;24.34;33.14
34370;BME280;20635;55.812;37.560;2022-12-18T11:33:37;99384.31;;;24.19;32.65
34370;BME280;20635;55.812;37.560;2022-12-18T11:36:08;99390.25;;;24.18;31.31
34370;BME280;20635;55.812;37.560;2022-12-18T11:38:38;99389.28;;;24.14;30.99
34370;BME280;20635;55.812;37.560;2022-12-18T11:41:21;99395.69;;;24.14;30.95
34370;BME280;20635;55.812;37.560;2022-12-18T11:44:11;99399.00;;;24.08;30.76
34370;BME280;20635;55.812;37.560;2022-12-18T11:46:52;99403.44;;;24.09;30.96
34370;BME280;20635;55.812;37.560;2022-12-18T11:49:34;99411.19;;;24.03;31.05
34370;BME280;20635;55.812;37.560;2022-12-18T11:52:21;99411.50;;;24.01;31.37
34370;BME280;20635;55.812;37.560;2022-12-18T11:54:52;99422.38;;;23.94;31.14
34370;BME280;20635;55.812;37.560;2022-12-18T11:57:41;99424.38;;;23.94;31.28
34370;BME280;20635;55.812;37.560;2022-12-18T12:00:16;99426.47;;;23.88;31.11
34370;BME280;20635;55.812;37.560;2022-12-18T12:19:29;99479.50;;;23.85;30.58
34370;BME280;20635;55.812;37.560;2022-12-18T12:24:57;99491.00;;;23.83;29.94
34370;BME280;20635;55.812;37.560;2022-12-18T12:30:21;99489.88;;;23.75;28.82
34370;BME280;20635;55.812;37.560;2022-12-18T12:35:37;99502.19;;;23.74;28.76
34370;BME280;20635;55.812;37.560;2022-12-18T12:40:48;99510.09;;;23.72;28.32
34370;BME280;20635;55.812;37.560;2022-12-18T12:48:22;99531.31;;;23.73;28.45
34370;BME280;20635;55.812;37.560;2022-12-18T12:50:51;99514.88;;;23.72;28.26
34370;BME280;20635;55.812;37.560;2022-12-18T12:53:26;99540.53;;;23.74;28.49
34370;BME280;20635;55.812;37.560;2022-12-18T12:55:55;99541.69;;;23.73;28.38
34370;BME280;20635;55.812;37.560;2022-12-18T12:59:10;99543.03;;;23.75;28.09
34370;BME280;20635;55.812;37.560;2022-12-18T13:01:36;99551.56;;;23.79;28.16
34370;BME280;20635;55.812;37.560;2022-12-18T13:04:26;99552.09;;;23.81;28.35
34370;BME280;20635;55.812;37.560;2022-12-18T13:07:29;99569.34;;;23.83;28.47
34370;BME280;20635;55.812;37.560;2022-12-18T13:15:46;99594.38;;;23.88;28.09
34370;BME280;20635;55.812;37.560;2022-12-18T13:18:20;99594.38;;;23.88;27.70
34370;BME280;20635;55.812;37.560;2022-12-18T13:20:50;99593.56;;;23.88;27.72
34370;BME280;20635;55.812;37.560;2022-12-18T13:23:35;99600.50;;;23.90;27.80
34370;BME280;20635;55.812;37.560;2022-12-18T13:31:15;99614.16;;;23.92;26.90
34370;BME280;20635;55.812;37.560;2022-12-18T13:34:35;99623.56;;;23.96;27.55
34370;BME280;20635;55.812;37.560;2022-12-18T13:39:58;99634.75;;;23.96;26.84
34370;BME280;20635;55.812;37.560;2022-12-18T13:42:57;99626.03;;;23.97;27.34
34370;BME280;20635;55.812;37.560;2022-12-18T13:45:49;99639.88;;;24.02;27.86
34370;BME280;20635;55.812;37.560;2022-12-18T13:48:25;99657.50;;;24.03;29.34
34370;BME280;20635;55.812;37.560;2022-12-18T13:50:57;99654.38;;;24.04;30.04
34370;BME280;20635;55.812;37.560;2022-12-18T13:53:30;99668.88;;;24.07;30.80
34370;BME280;20635;55.812;37.560;2022-12-18T13:56:01;99666.06;;;24.07;31.70
34370;BME280;20635;55.812;37.560;2022-12-18T13:58:31;99669.06;;;24.10;32.05
34370;BME280;20635;55.812;37.560;2022-12-18T14:01:00;99673.19;;;24.13;32.50
34370;BME280;20635;55.812;37.560;2022-12-18T14:03:30;99690.47;;;24.15;33.15
34370;BME280;20635;55.812;37.560;2022-12-18T14:06:00;99682.59;;;24.17;33.19
34370;BME280;20635;55.812;37.560;2022-12-18T14:08:32;99685.88;;;24.19;33.95
34370;BME280;20635;55.812;37.560;2022-12-18T14:11:00;99698.41;;;24.21;33.81
34370;BME280;20635;55.812;37.560;2022-12-18T14:13:31;99705.03;;;24.25;34.43
34370;BME280;20635;55.812;37.560;2022-12-18T14:16:01;99718.16;;;24.25;34.67
34370;BME280;20635;55.812;37.560;2022-12-18T14:18:38;99721.97;;;24.29;34.49
34370;BME280;20635;55.812;37.560;2022-12-18T14:23:45;99734.16;;;24.24;33.83
34370;BME280;20635;55.812;37.560;2022-12-18T14:26:30;99727.09;;;24.27;33.33
34370;BME280;20635;55.812;37.560;2022-12-18T14:28:58;99740.72;;;24.20;33.76
34370;BME280;20635;55.812;37.560;2022-12-18T14:31:29;99746.47;;;24.15;32.86
34370;BME280;20635;55.812;37.560;2022-12-18T14:33:56;99741.34;;;24.08;33.21
34370;BME280;20635;55.812;37.560;2022-12-18T14:36:25;99751.03;;;24.02;33.27
34370;BME280;20635;55.812;37.560;2022-12-18T14:38:57;99759.88;;;23.95;32.77
34370;BME280;20635;55.812;37.560;2022-12-18T14:41:26;99765.94;;;23.89;32.88
34370;BME280;20635;55.812;37.560;2022-12-18T14:43:54;99772.50;;;23.84;32.70
34370;BME280;20635;55.812;37.560;2022-12-18T14:46:36;99762.16;;;23.85;32.57
34370;BME280;20635;55.812;37.560;2022-12-18T14:49:23;99778.09;;;23.84;33.00
34370;BME280;20635;55.812;37.560;2022-12-18T14:52:27;99781.22;;;23.83;32.67